Juneau, WI

3:08 PM CST on February 20, 2017 (GMT -0600)
Dodge County

Weather History for KUNU - April, 2014

Change the Weather History Date:

Sunday, April 27, 2014

  Actual Average Record
Temperature  
Mean Temperature 44 °F -  
Max Temperature 50 °F 58 °F 84 °F (1986)
Min Temperature 37 °F 40 °F 28 °F (1976)
Degree Days  
Heating Degree Days 22    
Moisture  
Dew Point 30 °F    
Average Humidity 63    
Maximum Humidity 81    
Minimum Humidity 37    
Precipitation  
Precipitation 0.17 in - - ()
Sea Level Pressure  
Sea Level Pressure 29.99 in    
Wind  
Wind Speed 18 mph (East)    
Max Wind Speed 30 mph    
Max Gust Speed 40 mph    
Visibility 10 miles    
Events Rain , Thunderstorm    
Averages and records for this station are not official NWS values.
T = Trace of Precipitation, MM = Missing Value Source: NWS Daily Summary

Daily Weather History Graph

Daily Weather History Graph

Search for Another Location

Airport or City:

Trip Planner

Search our weather history database for the weather conditions in past years. The results will help you decide how hot, cold, wet, or windy it might be!

Date:

Astronomy

Apr. 27, 2014 Rise Set
Actual Time 5:53 AM CDT 7:52 PM CDT
Civil Twilight 5:22 AM CDT 8:23 PM CDT
Nautical Twilight 4:44 AM CDT 9:01 PM CDT
Astronomical Twilight 4:03 AM CDT 9:42 PM CDT
Moon 4:57 AM CDT (4/27) 6:23 PM CDT (4/27)
Length of Visible Light 15h 00m
Length of Day
13h 58m
Waning Crescent, 3% of the Moon is Illuminated
Apr 27
Waning Crescent
Apr 29
New
May 6
First Quarter
May 14
Full
May 21
Last Quarter

Hourly Weather History & Observations

Time (CDT) Temp. Windchill Dew Point Humidity Pressure Visibility Wind Dir Wind Speed Gust Speed Precip Events Conditions
12:15 AM 40.1 °F 32.4 °F 27.9 °F 62% 30.07 in 10.0 mi NE 13.8 mph - N/A   Overcast
12:35 AM 40.3 °F 33.9 °F 27.9 °F 61% 30.08 in 10.0 mi NE 10.4 mph - N/A   Overcast
1:15 AM 40.3 °F 32.6 °F 26.8 °F 59% 30.09 in 10.0 mi NE 13.8 mph 20.7 mph N/A   Overcast
1:35 AM 40.1 °F 32.0 °F 26.8 °F 59% 30.09 in 10.0 mi NE 15.0 mph - N/A   Overcast
1:55 AM 39.7 °F 32.3 °F 27.3 °F 61% 30.09 in 10.0 mi ENE 12.7 mph 23.0 mph N/A   Overcast
2:15 AM 39.6 °F 33.0 °F 28.4 °F 64% 30.10 in 10.0 mi ENE 10.4 mph - N/A   Overcast
2:35 AM 39.7 °F 31.5 °F 28.8 °F 65% 30.09 in 10.0 mi East 15.0 mph - N/A   Overcast
2:55 AM 39.4 °F 31.4 °F 29.5 °F 68% 30.07 in 10.0 mi ENE 13.8 mph 21.9 mph N/A   Light Drizzle
3:15 AM 39.2 °F 30.8 °F 30.2 °F 70% 30.07 in 10.0 mi ENE 15.0 mph 20.7 mph N/A   Light Drizzle
3:35 AM 39.4 °F 32.7 °F 30.6 °F 71% 30.09 in 10.0 mi ENE 10.4 mph 20.7 mph N/A   Overcast
3:55 AM 39.7 °F 31.5 °F 31.1 °F 71% 30.07 in 10.0 mi East 15.0 mph 19.6 mph N/A   Overcast
4:15 AM 40.1 °F 31.0 °F 31.8 °F 72% 30.05 in 10.0 mi East 18.4 mph 26.5 mph N/A   Overcast
4:35 AM 40.1 °F 31.3 °F 32.0 °F 73% 30.06 in 10.0 mi East 17.3 mph 24.2 mph N/A   Overcast
4:55 AM 40.1 °F 30.7 °F 32.2 °F 73% 30.05 in 10.0 mi East 19.6 mph 24.2 mph N/A   Overcast
5:15 AM 39.7 °F 30.9 °F 33.1 °F 77% 30.04 in 10.0 mi East 17.3 mph 24.2 mph N/A Rain Rain
5:35 AM 39.2 °F 29.3 °F 33.4 °F 80% 30.02 in 10.0 mi East 20.7 mph 28.8 mph N/A Rain Light Rain
5:55 AM 39.2 °F 29.8 °F 33.1 °F 79% 30.02 in 10.0 mi East 18.4 mph 31.1 mph N/A   Overcast
6:15 AM 39.2 °F 30.5 °F 32.4 °F 76% 30.04 in 10.0 mi East 16.1 mph 21.9 mph N/A   Overcast
6:35 AM 39.2 °F 30.5 °F 32.2 °F 76% 30.04 in 10.0 mi East 16.1 mph - N/A   Overcast
6:55 AM 39.4 °F 29.8 °F 32.0 °F 75% 30.04 in 10.0 mi East 19.6 mph 26.5 mph N/A   Overcast
7:15 AM 39.4 °F 29.8 °F 32.0 °F 75% 30.02 in 10.0 mi East 19.6 mph 28.8 mph N/A   Overcast
7:35 AM 39.2 °F 28.7 °F 32.0 °F 75% 30.03 in 10.0 mi East 23.0 mph 28.8 mph N/A   Overcast
7:55 AM 39.2 °F 30.2 °F 32.0 °F 75% 30.04 in 10.0 mi East 17.3 mph 27.6 mph N/A   Drizzle
8:15 AM 38.7 °F 29.1 °F 32.7 °F 79% 30.06 in 10.0 mi ESE 18.4 mph 25.3 mph N/A Rain Light Rain
8:35 AM 38.7 °F 29.1 °F 32.7 °F 79% 30.04 in 10.0 mi East 18.4 mph 24.2 mph N/A   Light Drizzle
8:55 AM 38.3 °F 28.4 °F 32.2 °F 79% 30.04 in 10.0 mi East 19.6 mph 27.6 mph N/A Rain Light Rain
9:15 AM 38.3 °F 29.0 °F 32.2 °F 79% 30.03 in 7.0 mi East 17.3 mph 25.3 mph N/A Rain Light Rain
9:35 AM 37.8 °F 26.8 °F 32.4 °F 81% 30.01 in 7.0 mi East 23.0 mph 28.8 mph 0.02 in Rain Light Rain
9:55 AM 37.8 °F 26.8 °F 32.0 °F 80% 29.99 in 7.0 mi East 23.0 mph 28.8 mph 0.02 in Rain Rain
10:15 AM 38.3 °F 29.7 °F 32.0 °F 78% 30.03 in 10.0 mi East 15.0 mph 29.9 mph N/A Rain Light Rain
10:35 AM 39.2 °F 28.5 °F 31.6 °F 74% 30.00 in 10.0 mi East 24.2 mph 28.8 mph N/A   Scattered Clouds
10:55 AM 39.4 °F 28.3 °F 30.4 °F 70% 29.97 in 10.0 mi East 26.5 mph 35.7 mph N/A   Scattered Clouds
11:15 AM 40.1 °F 30.7 °F 30.0 °F 67% 30.00 in 10.0 mi East 19.6 mph 31.1 mph N/A   Scattered Clouds
11:35 AM 41.5 °F 32.6 °F 30.7 °F 65% 30.02 in 10.0 mi East 19.6 mph 29.9 mph N/A   Clear
11:55 AM 42.4 °F 33.3 °F 29.8 °F 61% 30.02 in 10.0 mi East 21.9 mph 29.9 mph N/A   Scattered Clouds
12:35 PM 44.1 °F 35.2 °F 29.3 °F 56% 30.00 in 10.0 mi East 23.0 mph 29.9 mph N/A   Clear
12:55 PM 44.8 °F 35.3 °F 28.8 °F 53% 30.01 in 10.0 mi East 27.6 mph 32.2 mph N/A   Clear
1:15 PM 44.6 °F 35.3 °F 27.7 °F 52% 30.00 in 10.0 mi East 26.5 mph 32.2 mph N/A   Clear
1:35 PM 45.5 °F 36.9 °F 28.4 °F 51% 29.98 in 10.0 mi East 24.2 mph 28.8 mph N/A   Scattered Clouds
1:55 PM 45.5 °F 36.9 °F 27.1 °F 49% 29.98 in 10.0 mi ENE 24.2 mph 32.2 mph N/A   Clear
2:15 PM 46.4 °F 37.9 °F 27.7 °F 48% 29.98 in 10.0 mi ENE 25.3 mph 34.5 mph N/A   Clear
2:35 PM 46.4 °F 37.4 °F 26.4 °F 46% 29.97 in 10.0 mi East 28.8 mph 36.8 mph N/A   Mostly Cloudy
2:55 PM 46.9 °F - 26.2 °F 44% 29.96 in 10.0 mi ENE 27.6 mph 34.5 mph N/A   Mostly Cloudy
3:15 PM 47.5 °F - 25.5 °F 42% 29.94 in 10.0 mi East 28.8 mph 34.5 mph N/A   Mostly Cloudy
3:35 PM 48.6 °F - 25.3 °F 40% 29.92 in 10.0 mi East 29.9 mph 36.8 mph N/A   Mostly Cloudy
3:55 PM 48.4 °F - 24.8 °F 40% 29.91 in 10.0 mi East 24.2 mph 36.8 mph N/A   Mostly Cloudy
4:15 PM 49.3 °F - 25.2 °F 39% 29.90 in 10.0 mi East 28.8 mph 35.7 mph N/A   Scattered Clouds
4:35 PM 49.5 °F - 25.3 °F 39% 29.90 in 10.0 mi East 23.0 mph 34.5 mph N/A   Mostly Cloudy
5:15 PM 50.0 °F - 24.4 °F 37% 29.90 in 10.0 mi East 27.6 mph 40.3 mph N/A   Scattered Clouds
5:35 PM 49.5 °F - 24.4 °F 38% 29.89 in 10.0 mi East 27.6 mph 35.7 mph N/A   Mostly Cloudy
5:55 PM 49.3 °F - 24.6 °F 38% 29.90 in 10.0 mi East 24.2 mph 38.0 mph N/A   Scattered Clouds
6:15 PM 48.6 °F - 24.8 °F 39% 29.90 in 10.0 mi ENE 23.0 mph 31.1 mph N/A   Scattered Clouds
6:35 PM 48.6 °F - 24.8 °F 39% 29.96 in 10.0 mi East 19.6 mph 25.3 mph N/A Thunderstorm Thunderstorm
6:55 PM 48.4 °F - 25.5 °F 41% 29.95 in 10.0 mi East 21.9 mph 28.8 mph N/A Thunderstorm Overcast
7:15 PM 47.3 °F - 28.6 °F 48% 29.94 in 10.0 mi ENE 18.4 mph 25.3 mph N/A Rain , Thunderstorm Rain
7:35 PM 45.3 °F 37.8 °F 32.2 °F 60% 29.95 in 5.0 mi East 18.4 mph 26.5 mph 0.03 in Rain Rain
7:55 PM 44.6 °F 37.2 °F 34.3 °F 67% 29.96 in 2.5 mi East 17.3 mph 26.5 mph 0.11 in Rain Rain
8:15 PM 43.7 °F 36.0 °F 36.7 °F 76% 29.95 in 5.0 mi East 17.3 mph 25.3 mph 0.03 in Rain Light Rain
8:35 PM 44.2 °F 36.4 °F 36.0 °F 73% 29.94 in 10.0 mi East 18.4 mph 21.9 mph 0.03 in Rain Light Rain
8:55 PM 45.5 °F 38.9 °F 35.1 °F 67% 29.95 in 10.0 mi East 15.0 mph 27.6 mph 0.03 in Rain Rain
9:15 PM 45.1 °F 38.1 °F 36.3 °F 71% 29.95 in 10.0 mi East 16.1 mph 21.9 mph N/A Rain Light Rain
9:35 PM 45.0 °F 37.6 °F 36.1 °F 71% 29.95 in 10.0 mi East 17.3 mph 23.0 mph 0.01 in Rain Light Rain
9:55 PM 45.1 °F 37.9 °F 35.2 °F 68% 29.93 in 10.0 mi East 17.3 mph 26.5 mph 0.01 in Rain Light Rain
10:15 PM 45.1 °F 39.1 °F 35.2 °F 68% 29.93 in 10.0 mi East 12.7 mph - N/A Rain Light Rain
10:35 PM 45.0 °F 38.5 °F 35.4 °F 69% 29.92 in 10.0 mi ENE 13.8 mph 18.4 mph N/A Rain Light Rain
10:55 PM 45.1 °F 39.1 °F 34.2 °F 65% 29.91 in 10.0 mi East 12.7 mph 19.6 mph N/A   Overcast
11:15 PM 45.3 °F 38.4 °F 33.3 °F 63% 29.88 in 10.0 mi ENE 16.1 mph 24.2 mph N/A   Light Drizzle
11:35 PM 45.1 °F 37.9 °F 32.7 °F 62% 29.88 in 10.0 mi East 17.3 mph 23.0 mph N/A   Mostly Cloudy
11:55 PM 44.6 °F 36.9 °F 33.3 °F 64% 29.88 in 10.0 mi East 18.4 mph 27.6 mph N/A   Drizzle